Aérodrome :
LOGIN :

S'inscrire | Disclaimer

   EN    FR    IT 

 










Légende :    VFR   VFR Marginal   IFR   IFR Intensif   IFR Très Intensif
Visi : 
Plafond : 
>= 8 km
>= 3000ft
5 à 8 km
1000 à 3000 ft
1500m à 5 km
500 à 1000 ft
800 à 1500m
200 à 500 ft
< 800m
< 200 ft
Symboles :   Orages  Brouillard  Fortes neiges  Fortes précipitations  Vent > 20 kt
SIGMETs :   Divers  Orages  Givrage  Turbulence  Onde Orograph.  Cendres Volcan.







- Altitude de l'aérodrome : 236 ft
- Code IATA : MMX


ESMS - Malmö Sturup

DERNIER METAR :
  • 222220Z 15010KT 9000 SCT016 M01/M03 Q1007 R17/29//95

METARs EXPIRÉS :
  • 222150Z 15008KT 9999 BKN015 M01/M03 Q1007 R17/29//95
  • 222120Z 15008KT 8000 BKN012 M01/M02 Q1007 R17/29//95
  • 222050Z 15009KT 8000 OVC011 M00/M02 Q1007 R17/29//95
  • 222020Z 16009KT 9999 BR OVC009 M00/M01 Q1007 R17/29//95
  • 221950Z 16011KT 9999 OVC009 M00/M02 Q1007 R17/29//95

TAF TAF ESMS
Valide du 22 à 18h jusqu'au 23 à 18h UTC


221802Z 2218/2318 15010KT 8000 SCT010
TEMPO 2218/2224 BKN008
Pas de NOTAMs connus pour ce terrain.



MET'MAP, la Météo Aéronautique d'un coup d'oeil ! - Copyright ORBIFLY Décembre 2007 - Disclaimer

ORBIFLY MET'MAP TEAM :

Programmation & Développement : Alexandra Zaïnal
Conception & Développement : Baudouin d'Aumeries
Co-Programmation & Développement : Marc-Olivier Méhu
Soutien technique & logistique : Manuel Goepfert

Contact : metmap@orbifly.com




SOURCES & CREDITS :

   NOAA